Plainfield, Illinois
Current Conditions -  °F | °C
As of 4:55 PM on Tuesday 27 Jan 2015 (Local Time) from KLOT Reporting Station
Clear Clear  
Wind Chill: 22°   Ceiling: Unl
Heat Index: 29°   Visibility: 10mi
Dew Point: 19°   Wind: 7mph
Humidity: 68%   Direction: 40°NE
Pressure: 30.23"   Gusts: NA
Location:  41.62°N, 88.2°W
Report Text: KLOT 272255Z AUTO 04006KT 10SM CLR M02/M07 A3023 RMK AO2 T10181070
Loading
Personal Weather Stations






























Interactive Weather Map New forecast layout! Learn more

10-Day Weather Forecast

Advertisements
Track Severe Weather on mobile